TimeCDT,TemperatureF,Dew PointF,Humidity,Sea Level PressureIn,VisibilityMPH,Wind Direction,Wind SpeedMPH,Gust SpeedMPH,PrecipitationIn,Events,Conditions,WindDirDegrees,DateUTC
12:54 AM,70.0,68.0,93,29.96,10.0,SSE,6.9,-,N/A,,Clear,150,2013-06-09 05:54:00
1:54 AM,69.1,66.9,93,29.95,8.0,SSW,4.6,-,N/A,,Clear,200,2013-06-09 06:54:00
2:54 AM,70.0,68.0,93,29.96,9.0,SE,6.9,-,N/A,,Clear,140,2013-06-09 07:54:00
3:54 AM,70.0,68.0,93,29.96,10.0,South,3.5,-,N/A,,Clear,170,2013-06-09 08:54:00
4:54 AM,71.1,69.1,93,29.96,10.0,South,3.5,-,N/A,,Clear,170,2013-06-09 09:54:00
5:54 AM,71.1,69.1,93,29.97,10.0,SSE,6.9,-,N/A,,Overcast,150,2013-06-09 10:54:00
6:54 AM,71.1,69.1,93,29.97,10.0,SSE,5.8,-,N/A,,Scattered Clouds,160,2013-06-09 11:54:00
7:54 AM,73.9,69.1,85,29.97,10.0,SSE,9.2,-,N/A,,Scattered Clouds,160,2013-06-09 12:54:00
8:54 AM,77.0,71.1,82,29.98,10.0,SSE,9.2,-,N/A,,Partly Cloudy,160,2013-06-09 13:54:00
9:54 AM,80.1,71.1,74,29.97,10.0,South,10.4,-,N/A,,Scattered Clouds,180,2013-06-09 14:54:00
10:54 AM,82.0,71.1,69,29.96,10.0,South,8.1,-,N/A,,Scattered Clouds,170,2013-06-09 15:54:00
11:01 AM,80.6,71.6,74,29.97,10.0,South,6.9,-,N/A,,Mostly Cloudy,170,2013-06-09 16:01:00
11:21 AM,82.4,71.6,70,29.97,10.0,SSW,8.1,-,N/A,,Mostly Cloudy,210,2013-06-09 16:21:00
11:54 AM,82.9,72.0,69,29.95,10.0,South,6.9,-,N/A,,Overcast,190,2013-06-09 16:54:00
12:54 PM,82.0,72.0,71,29.95,10.0,South,11.5,-,N/A,,Mostly Cloudy,190,2013-06-09 17:54:00
1:54 PM,84.9,72.0,65,29.91,10.0,SSE,11.5,-,N/A,,Scattered Clouds,160,2013-06-09 18:54:00
2:54 PM,84.9,72.0,65,29.90,10.0,SE,13.8,-,N/A,,Partly Cloudy,140,2013-06-09 19:54:00
3:54 PM,86.0,72.0,63,29.89,10.0,SSE,13.8,18.4,N/A,,Scattered Clouds,160,2013-06-09 20:54:00
4:54 PM,84.0,72.0,67,29.88,10.0,SSE,9.2,-,N/A,,Scattered Clouds,160,2013-06-09 21:54:00
5:18 PM,84.2,71.6,66,29.90,10.0,South,9.2,-,N/A,Thunderstorm,Thunderstorm,180,2013-06-09 22:18:00
5:54 PM,75.9,72.0,87,29.90,2.0,NW,16.1,24.2,0.04,Rain-Thunderstorm,Thunderstorms and Rain,310,2013-06-09 22:54:00
5:58 PM,73.4,69.8,88,29.91,0.8,NNW,21.9,35.7,0.01,Rain-Thunderstorm,Thunderstorms and Rain,330,2013-06-09 22:58:00
6:15 PM,75.2,69.8,83,29.91,2.0,SSW,12.7,-,0.35,Rain-Thunderstorm,Heavy Thunderstorms and Rain,200,2013-06-09 23:15:00
6:25 PM,75.2,68.0,78,29.89,10.0,South,13.8,-,0.38,Thunderstorm,Mostly Cloudy,170,2013-06-09 23:25:00
6:54 PM,73.0,69.1,87,29.89,10.0,SE,6.9,-,0.38,Thunderstorm,Thunderstorm,140,2013-06-09 23:54:00
7:11 PM,73.4,69.8,88,29.90,10.0,SSE,5.8,-,N/A,,Clear,150,2013-06-10 00:11:00
7:54 PM,73.0,69.1,87,29.89,10.0,SSE,5.8,-,N/A,,Mostly Cloudy,160,2013-06-10 00:54:00
8:54 PM,72.0,70.0,93,29.90,10.0,SSE,8.1,-,0.09,,Mostly Cloudy,160,2013-06-10 01:54:00
9:54 PM,72.0,70.0,93,29.92,10.0,SW,3.5,-,0.05,,Partly Cloudy,220,2013-06-10 02:54:00
10:54 PM,73.0,71.1,93,29.95,10.0,SW,4.6,-,0.00,,Scattered Clouds,230,2013-06-10 03:54:00
11:54 PM,73.0,71.1,93,29.94,10.0,Calm,Calm,-,N/A,,Clear,0,2013-06-10 04:54:00